createdAt,value
2023-03-27T00:00:32.821Z,3.56
2023-03-27T00:05:36.564Z,3.58
2023-03-27T00:10:40.017Z,3.64
2023-03-27T00:15:44.604Z,3.68
2023-03-27T00:20:47.726Z,3.62
2023-03-27T00:25:51.572Z,3.68
2023-03-27T00:30:57.685Z,3.66
2023-03-27T00:36:01.083Z,3.77
2023-03-27T00:41:04.936Z,3.83
2023-03-27T00:46:27.850Z,3.69
2023-03-27T00:51:32.795Z,3.72
2023-03-27T00:56:38.674Z,3.63
2023-03-27T01:01:45.749Z,3.40
2023-03-27T01:06:52.143Z,3.40
2023-03-27T01:12:10.548Z,3.24
2023-03-27T01:17:31.463Z,3.11
2023-03-27T01:23:02.648Z,3.20
2023-03-27T01:28:29.198Z,3.05
2023-03-27T01:34:15.061Z,3.07
2023-03-27T01:39:36.900Z,3.18
2023-03-27T01:44:48.482Z,2.92
2023-03-27T01:49:58.096Z,2.92
2023-03-27T01:55:09.825Z,2.80
2023-03-27T02:00:21.868Z,2.85
2023-03-27T02:05:30.582Z,2.51
2023-03-27T02:10:42.025Z,2.46
2023-03-27T02:15:51.674Z,2.53
2023-03-27T02:20:55.251Z,2.69
2023-03-27T02:26:01.784Z,2.74
2023-03-27T02:31:32.218Z,2.55
2023-03-27T02:36:49.551Z,2.73
2023-03-27T02:42:02.775Z,2.58
2023-03-27T02:47:16.777Z,2.64
2023-03-27T02:52:27.793Z,2.62
2023-03-27T02:57:34.174Z,2.66
2023-03-27T03:03:07.317Z,2.52
2023-03-27T03:08:11.223Z,2.53
2023-03-27T03:13:16.217Z,2.47
2023-03-27T03:18:20.210Z,2.55
2023-03-27T03:23:24.849Z,2.42
2023-03-27T03:28:29.632Z,2.28
2023-03-27T03:33:34.455Z,2.49
2023-03-27T03:38:38.416Z,2.38
2023-03-27T03:43:51.350Z,2.22
2023-03-27T03:48:54.982Z,1.92
2023-03-27T03:53:58.245Z,1.80
2023-03-27T03:59:04.579Z,1.82
2023-03-27T04:04:09.519Z,1.76
2023-03-27T04:09:31.241Z,1.72
2023-03-27T04:14:44.482Z,1.54
2023-03-27T04:20:08.361Z,1.52
2023-03-27T04:25:14.855Z,1.57
2023-03-27T04:30:23.417Z,1.57
2023-03-27T04:36:05.291Z,1.81
2023-03-27T04:41:29.560Z,1.78
2023-03-27T04:46:34.260Z,1.58
2023-03-27T04:51:43.651Z,1.59
2023-03-27T04:56:48.254Z,1.68
2023-03-27T05:01:54.587Z,1.54
2023-03-27T05:07:05.082Z,1.58
2023-03-27T05:12:08.876Z,1.41
2023-03-27T05:17:20.241Z,1.16
2023-03-27T05:22:23.842Z,1.28
2023-03-27T05:27:36.503Z,1.00
2023-03-27T05:32:41.684Z,0.96
2023-03-27T05:37:54.661Z,0.72
2023-03-27T05:43:18.085Z,0.92
2023-03-27T05:48:22.986Z,0.77
2023-03-27T05:53:29.103Z,0.75
2023-03-27T05:58:58.192Z,0.87
2023-03-27T06:04:04.679Z,0.72
2023-03-27T06:09:37.426Z,0.84
2023-03-27T06:15:00.719Z,0.99
2023-03-27T06:20:15.081Z,1.04
2023-03-27T06:25:26.083Z,1.16
2023-03-27T06:30:30.376Z,1.19
2023-03-27T06:35:55.144Z,2.26
2023-03-27T06:41:06.373Z,2.91
2023-03-27T06:46:45.848Z,3.00
2023-03-27T06:52:03.895Z,3.93
2023-03-27T06:57:07.333Z,3.66
2023-03-27T07:02:24.937Z,3.84
2023-03-27T07:07:50.281Z,4.20
2023-03-27T07:12:55.527Z,5.43
2023-03-27T07:18:01.301Z,5.43
2023-03-27T07:23:06.192Z,6.44
2023-03-27T07:28:25.498Z,5.93
2023-03-27T07:33:29.228Z,5.79
2023-03-27T07:38:35.331Z,4.65
2023-03-27T07:43:46.754Z,4.10
2023-03-27T07:48:50.726Z,4.78
2023-03-27T07:54:04.131Z,5.04
2023-03-27T07:59:12.498Z,5.05
2023-03-27T08:04:17.148Z,5.12
2023-03-27T08:09:35.257Z,4.91
2023-03-27T08:14:38.762Z,4.93
2023-03-27T08:19:52.350Z,4.85
2023-03-27T08:24:57.582Z,5.31
2023-03-27T08:30:02.998Z,5.25
2023-03-27T08:35:09.863Z,5.23
2023-03-27T08:40:21.423Z,5.65
2023-03-27T08:45:29.195Z,5.61
2023-03-27T08:50:42.318Z,4.78
2023-03-27T08:55:53.041Z,4.68
2023-03-27T09:01:14.827Z,4.79
2023-03-27T09:06:26.165Z,4.32
2023-03-27T09:11:53.146Z,4.05
2023-03-27T09:17:15.177Z,4.76
2023-03-27T09:22:25.801Z,4.62
2023-03-27T09:27:47.293Z,4.49
2023-03-27T09:33:13.752Z,4.79
2023-03-27T09:38:27.848Z,4.97
2023-03-27T09:43:40.596Z,4.73
2023-03-27T09:48:50.543Z,5.39
2023-03-27T09:53:59.602Z,5.47
2023-03-27T09:59:25.285Z,5.42
2023-03-27T10:04:30.332Z,4.91
2023-03-27T10:09:37.514Z,6.45
2023-03-27T10:14:47.817Z,5.96
2023-03-27T10:20:09.066Z,5.60
2023-03-27T10:25:19.264Z,6.34
2023-03-27T10:31:01.361Z,5.53
2023-03-27T10:36:28.353Z,6.53
2023-03-27T10:41:36.106Z,7.14
2023-03-27T10:46:44.235Z,5.92
2023-03-27T10:51:52.685Z,6.08
2023-03-27T10:57:16.911Z,5.65
2023-03-27T11:02:30.387Z,5.26
2023-03-27T11:07:39.016Z,5.41
2023-03-27T11:12:52.068Z,5.56
2023-03-27T11:18:01.935Z,5.60
2023-03-27T11:23:20.028Z,5.71
2023-03-27T11:28:47.757Z,7.16
2023-03-27T11:33:57.152Z,7.40
2023-03-27T11:39:15.381Z,7.04
2023-03-27T11:44:23.219Z,6.40
2023-03-27T11:50:20.190Z,5.78
2023-03-27T11:55:35.005Z,6.41
2023-03-27T12:00:49.031Z,6.52
2023-03-27T12:06:05.957Z,7.04
2023-03-27T12:11:14.091Z,7.27
2023-03-27T12:17:02.972Z,7.57
2023-03-27T12:22:29.830Z,7.24
2023-03-27T12:27:56.133Z,6.98
2023-03-27T12:33:28.654Z,7.45
2023-03-27T12:38:35.434Z,7.17
2023-03-27T12:43:45.295Z,7.10
2023-03-27T12:49:02.315Z,6.36
2023-03-27T12:54:25.912Z,6.53
2023-03-27T12:59:34.334Z,6.42
2023-03-27T13:05:24.082Z,5.19
2023-03-27T13:10:46.434Z,3.74
2023-03-27T13:16:19.182Z,3.34
2023-03-27T13:21:38.923Z,4.10
2023-03-27T13:26:53.448Z,4.50
2023-03-27T13:32:07.328Z,4.08
2023-03-27T13:37:49.114Z,4.68
2023-03-27T13:43:01.683Z,5.05
2023-03-27T13:49:06.049Z,5.88
2023-03-27T13:55:11.797Z,6.05
2023-03-27T14:00:58.731Z,6.39
2023-03-27T14:06:38.888Z,6.77
2023-03-27T14:12:03.755Z,7.01
2023-03-27T14:17:47.477Z,6.78
2023-03-27T14:22:59.076Z,5.83
2023-03-27T14:28:10.422Z,6.62
2023-03-27T14:33:20.323Z,6.60
2023-03-27T14:38:32.019Z,6.74
2023-03-27T14:43:37.714Z,6.41
2023-03-27T14:48:45.073Z,6.10
2023-03-27T14:53:52.476Z,5.77
2023-03-27T14:59:22.053Z,4.47
2023-03-27T15:04:32.024Z,3.81
2023-03-27T15:09:42.897Z,3.19
2023-03-27T15:15:06.549Z,3.82
2023-03-27T15:20:14.540Z,3.76
2023-03-27T15:25:23.166Z,3.62
2023-03-27T15:30:33.384Z,2.46
2023-03-27T15:35:40.443Z,2.19
2023-03-27T15:40:46.339Z,2.66
2023-03-27T15:46:11.413Z,2.81
2023-03-27T15:51:30.559Z,2.67
2023-03-27T15:56:41.250Z,2.63
2023-03-27T16:01:52.334Z,3.20
2023-03-27T16:07:06.486Z,2.88
2023-03-27T16:12:13.147Z,3.36
2023-03-27T16:17:25.290Z,3.67
2023-03-27T16:22:30.860Z,3.82
2023-03-27T16:27:37.072Z,3.95
2023-03-27T16:32:41.904Z,4.01
2023-03-27T16:43:05.804Z,1.58
2023-03-27T16:48:13.502Z,1.54
2023-03-27T16:53:17.184Z,1.84
2023-03-27T16:58:20.553Z,1.78
2023-03-27T17:03:25.217Z,1.78
2023-03-27T17:08:30.344Z,1.70
2023-03-27T17:13:33.800Z,1.81
2023-03-27T17:18:38.389Z,1.76
2023-03-27T17:23:43.532Z,1.63
2023-03-27T17:28:48.372Z,1.35
2023-03-27T17:33:53.555Z,1.41
2023-03-27T17:38:56.996Z,1.30
2023-03-27T17:44:00.672Z,1.36
2023-03-27T17:49:05.491Z,1.31
2023-03-27T17:54:08.991Z,1.11
2023-03-27T17:59:12.619Z,0.86
2023-03-27T18:04:17.618Z,0.82
2023-03-27T18:09:21.861Z,0.78
2023-03-27T18:14:25.499Z,0.56
2023-03-27T18:19:30.895Z,0.82
2023-03-27T18:24:35.002Z,0.61
2023-03-27T18:29:39.097Z,0.72
2023-03-27T18:34:44.636Z,0.60
2023-03-27T18:39:48.064Z,0.58
2023-03-27T18:44:51.710Z,0.73
2023-03-27T18:49:57.819Z,0.85
2023-03-27T18:55:01.248Z,1.04
2023-03-27T19:00:07.409Z,0.92
2023-03-27T19:05:12.999Z,1.05
2023-03-27T19:10:17.393Z,1.26
2023-03-27T19:15:42.165Z,1.10
2023-03-27T19:21:06.220Z,0.86
2023-03-27T19:26:45.501Z,0.58
2023-03-27T19:31:48.689Z,0.54
2023-03-27T19:36:54.081Z,0.26
2023-03-27T19:41:58.075Z,0.30
2023-03-27T19:47:03.695Z,0.11
2023-03-27T19:52:09.301Z,0.30
2023-03-27T19:57:12.623Z,0.43
2023-03-27T20:02:17.141Z,0.09
2023-03-27T20:07:22.012Z,0.13
2023-03-27T20:12:25.671Z,-0.14
2023-03-27T20:17:29.151Z,0.02
2023-03-27T20:22:36.601Z,-0.07
2023-03-27T20:27:45.578Z,-0.12
2023-03-27T20:32:48.824Z,-0.01
2023-03-27T20:37:58.142Z,0.01
2023-03-27T20:43:06.060Z,-0.01
2023-03-27T20:48:14.925Z,0.08
2023-03-27T20:53:25.908Z,-0.05
2023-03-27T20:58:30.082Z,0.12
2023-03-27T21:03:35.104Z,0.14
2023-03-27T21:08:41.294Z,0.21
2023-03-27T21:13:44.593Z,0.25
2023-03-27T21:18:47.740Z,0.33
2023-03-27T21:23:54.189Z,0.34
2023-03-27T21:28:57.267Z,0.06
2023-03-27T21:34:00.413Z,0.11
2023-03-27T21:39:05.593Z,0.03
2023-03-27T21:44:08.773Z,0.15
2023-03-27T21:49:12.024Z,0.14
2023-03-27T21:54:16.595Z,0.37
2023-03-27T21:59:19.892Z,0.28
2023-03-27T22:04:23.220Z,0.20
2023-03-27T22:09:28.109Z,0.27
2023-03-27T22:14:31.571Z,0.28
2023-03-27T22:19:34.812Z,0.37
2023-03-27T22:24:39.559Z,0.35
2023-03-27T22:29:42.782Z,0.06
2023-03-27T22:34:49.135Z,0.28
2023-03-27T22:39:53.857Z,0.39
2023-03-27T22:44:57.089Z,0.36
2023-03-27T22:50:09.381Z,0.36
2023-03-27T22:55:12.646Z,0.45
2023-03-27T23:00:17.226Z,0.34
2023-03-27T23:05:22.175Z,0.35
2023-03-27T23:10:25.728Z,0.65
2023-03-27T23:15:29.985Z,0.66
2023-03-27T23:20:35.126Z,0.62
2023-03-27T23:25:39.541Z,0.57
2023-03-27T23:30:45.600Z,0.60
2023-03-27T23:35:50.248Z,0.65
2023-03-27T23:40:57.729Z,0.68
2023-03-27T23:46:01.233Z,0.91
2023-03-27T23:51:06.879Z,0.91
2023-03-27T23:56:11.218Z,0.99
